sensor_id;sensor_type;location;lat;lon;timestamp;P1;durP1;ratioP1;P2;durP2;ratioP2
51602;SDS011;37954;51.980;5.850;2024-03-25T00:00:35;10.73;;;2.87;;
51602;SDS011;37954;51.980;5.850;2024-03-25T00:04:45;15.17;;;3.23;;
51602;SDS011;37954;51.980;5.850;2024-03-25T00:08:56;14.67;;;3.20;;
51602;SDS011;37954;51.980;5.850;2024-03-25T00:13:07;10.93;;;2.70;;
51602;SDS011;37954;51.980;5.850;2024-03-25T00:17:17;9.93;;;3.00;;
51602;SDS011;37954;51.980;5.850;2024-03-25T00:21:29;10.63;;;2.90;;
51602;SDS011;37954;51.980;5.850;2024-03-25T00:25:40;13.53;;;3.40;;
51602;SDS011;37954;51.980;5.850;2024-03-25T00:29:51;16.70;;;3.70;;
51602;SDS011;37954;51.980;5.850;2024-03-25T00:34:02;11.60;;;2.83;;
51602;SDS011;37954;51.980;5.850;2024-03-25T00:38:12;11.60;;;2.83;;
51602;SDS011;37954;51.980;5.850;2024-03-25T00:42:23;13.50;;;3.03;;
51602;SDS011;37954;51.980;5.850;2024-03-25T00:46:34;9.60;;;2.57;;
51602;SDS011;37954;51.980;5.850;2024-03-25T00:50:44;9.53;;;2.83;;
51602;SDS011;37954;51.980;5.850;2024-03-25T00:54:55;15.30;;;3.40;;
51602;SDS011;37954;51.980;5.850;2024-03-25T00:59:06;11.30;;;3.20;;
51602;SDS011;37954;51.980;5.850;2024-03-25T01:03:17;19.17;;;3.70;;
51602;SDS011;37954;51.980;5.850;2024-03-25T01:07:28;16.43;;;3.13;;
51602;SDS011;37954;51.980;5.850;2024-03-25T01:11:39;11.13;;;2.80;;
51602;SDS011;37954;51.980;5.850;2024-03-25T01:15:50;8.30;;;2.83;;
51602;SDS011;37954;51.980;5.850;2024-03-25T01:20:00;15.77;;;3.23;;
51602;SDS011;37954;51.980;5.850;2024-03-25T01:24:11;11.30;;;2.90;;
51602;SDS011;37954;51.980;5.850;2024-03-25T01:28:22;11.30;;;3.30;;
51602;SDS011;37954;51.980;5.850;2024-03-25T01:32:32;18.70;;;3.20;;
51602;SDS011;37954;51.980;5.850;2024-03-25T01:36:43;10.53;;;2.63;;
51602;SDS011;37954;51.980;5.850;2024-03-25T01:40:54;17.20;;;3.47;;
51602;SDS011;37954;51.980;5.850;2024-03-25T01:45:07;19.30;;;3.60;;
51602;SDS011;37954;51.980;5.850;2024-03-25T01:49:20;17.40;;;3.30;;
51602;SDS011;37954;51.980;5.850;2024-03-25T01:53:31;11.23;;;2.90;;
51602;SDS011;37954;51.980;5.850;2024-03-25T01:57:43;13.43;;;3.00;;
51602;SDS011;37954;51.980;5.850;2024-03-25T02:01:55;9.70;;;2.63;;
51602;SDS011;37954;51.980;5.850;2024-03-25T02:06:06;10.27;;;3.13;;
51602;SDS011;37954;51.980;5.850;2024-03-25T02:10:23;15.07;;;3.53;;
51602;SDS011;37954;51.980;5.850;2024-03-25T02:14:34;15.93;;;3.20;;
51602;SDS011;37954;51.980;5.850;2024-03-25T02:18:45;15.40;;;3.57;;
51602;SDS011;37954;51.980;5.850;2024-03-25T02:22:56;17.97;;;4.07;;
51602;SDS011;37954;51.980;5.850;2024-03-25T02:27:07;19.20;;;3.97;;
51602;SDS011;37954;51.980;5.850;2024-03-25T02:31:18;16.27;;;3.63;;
51602;SDS011;37954;51.980;5.850;2024-03-25T02:35:29;12.57;;;3.07;;
51602;SDS011;37954;51.980;5.850;2024-03-25T02:39:40;15.00;;;4.17;;
51602;SDS011;37954;51.980;5.850;2024-03-25T02:43:52;16.07;;;3.97;;
51602;SDS011;37954;51.980;5.850;2024-03-25T02:48:03;16.87;;;3.87;;
51602;SDS011;37954;51.980;5.850;2024-03-25T02:52:14;11.57;;;3.43;;
51602;SDS011;37954;51.980;5.850;2024-03-25T02:56:25;17.93;;;5.67;;
51602;SDS011;37954;51.980;5.850;2024-03-25T03:00:35;17.33;;;4.30;;
51602;SDS011;37954;51.980;5.850;2024-03-25T03:04:46;18.20;;;4.03;;
51602;SDS011;37954;51.980;5.850;2024-03-25T03:08:57;11.83;;;3.60;;
51602;SDS011;37954;51.980;5.850;2024-03-25T03:13:07;10.27;;;3.73;;
51602;SDS011;37954;51.980;5.850;2024-03-25T03:17:18;14.67;;;4.63;;
51602;SDS011;37954;51.980;5.850;2024-03-25T03:21:29;15.80;;;4.77;;
51602;SDS011;37954;51.980;5.850;2024-03-25T03:25:40;13.17;;;3.63;;
51602;SDS011;37954;51.980;5.850;2024-03-25T03:29:51;10.80;;;3.50;;
51602;SDS011;37954;51.980;5.850;2024-03-25T03:34:02;17.43;;;3.80;;
51602;SDS011;37954;51.980;5.850;2024-03-25T03:38:13;9.17;;;3.23;;
51602;SDS011;37954;51.980;5.850;2024-03-25T03:42:23;10.00;;;3.40;;
51602;SDS011;37954;51.980;5.850;2024-03-25T03:46:34;13.20;;;3.67;;
51602;SDS011;37954;51.980;5.850;2024-03-25T03:50:45;7.63;;;3.00;;
51602;SDS011;37954;51.980;5.850;2024-03-25T03:54:55;10.07;;;4.03;;
51602;SDS011;37954;51.980;5.850;2024-03-25T03:59:06;16.87;;;3.70;;
51602;SDS011;37954;51.980;5.850;2024-03-25T04:03:17;13.30;;;3.37;;
51602;SDS011;37954;51.980;5.850;2024-03-25T04:07:28;14.40;;;3.00;;
51602;SDS011;37954;51.980;5.850;2024-03-25T04:11:39;7.97;;;3.17;;
51602;SDS011;37954;51.980;5.850;2024-03-25T04:15:50;9.20;;;2.60;;
51602;SDS011;37954;51.980;5.850;2024-03-25T04:20:01;7.73;;;3.03;;
51602;SDS011;37954;51.980;5.850;2024-03-25T04:24:12;9.30;;;2.90;;
51602;SDS011;37954;51.980;5.850;2024-03-25T04:28:23;10.13;;;3.20;;
51602;SDS011;37954;51.980;5.850;2024-03-25T04:32:34;10.97;;;3.27;;
51602;SDS011;37954;51.980;5.850;2024-03-25T04:36:45;9.07;;;2.97;;
51602;SDS011;37954;51.980;5.850;2024-03-25T04:40:56;11.30;;;3.33;;
51602;SDS011;37954;51.980;5.850;2024-03-25T04:45:06;7.50;;;3.27;;
51602;SDS011;37954;51.980;5.850;2024-03-25T04:49:17;8.20;;;3.77;;
51602;SDS011;37954;51.980;5.850;2024-03-25T04:53:28;11.20;;;3.10;;
51602;SDS011;37954;51.980;5.850;2024-03-25T04:57:40;10.77;;;3.83;;
51602;SDS011;37954;51.980;5.850;2024-03-25T05:01:51;10.50;;;3.63;;
51602;SDS011;37954;51.980;5.850;2024-03-25T05:06:02;14.60;;;4.47;;
51602;SDS011;37954;51.980;5.850;2024-03-25T05:10:15;13.47;;;4.23;;
51602;SDS011;37954;51.980;5.850;2024-03-25T05:14:26;10.43;;;4.00;;
51602;SDS011;37954;51.980;5.850;2024-03-25T05:18:37;11.17;;;4.63;;
51602;SDS011;37954;51.980;5.850;2024-03-25T05:22:47;10.90;;;4.17;;
51602;SDS011;37954;51.980;5.850;2024-03-25T05:26:58;14.27;;;4.60;;
51602;SDS011;37954;51.980;5.850;2024-03-25T05:31:09;10.33;;;4.43;;
51602;SDS011;37954;51.980;5.850;2024-03-25T05:35:20;12.17;;;5.30;;
51602;SDS011;37954;51.980;5.850;2024-03-25T05:39:31;13.17;;;5.23;;
51602;SDS011;37954;51.980;5.850;2024-03-25T05:43:42;15.50;;;4.97;;
51602;SDS011;37954;51.980;5.850;2024-03-25T05:47:53;16.20;;;4.47;;
51602;SDS011;37954;51.980;5.850;2024-03-25T05:52:04;16.20;;;4.70;;
51602;SDS011;37954;51.980;5.850;2024-03-25T05:56:15;15.03;;;5.10;;
51602;SDS011;37954;51.980;5.850;2024-03-25T06:00:25;9.67;;;5.00;;
51602;SDS011;37954;51.980;5.850;2024-03-25T06:04:38;14.87;;;4.97;;
51602;SDS011;37954;51.980;5.850;2024-03-25T06:08:48;16.20;;;5.43;;
51602;SDS011;37954;51.980;5.850;2024-03-25T06:17:55;15.87;;;4.87;;
51602;SDS011;37954;51.980;5.850;2024-03-25T06:22:05;12.87;;;5.40;;
51602;SDS011;37954;51.980;5.850;2024-03-25T06:26:16;11.70;;;4.90;;
51602;SDS011;37954;51.980;5.850;2024-03-25T06:30:27;10.07;;;4.03;;
51602;SDS011;37954;51.980;5.850;2024-03-25T06:34:57;17.33;;;4.57;;
51602;SDS011;37954;51.980;5.850;2024-03-25T06:39:11;11.27;;;3.87;;
51602;SDS011;37954;51.980;5.850;2024-03-25T06:43:21;14.45;;;4.43;;
51602;SDS011;37954;51.980;5.850;2024-03-25T06:47:32;11.57;;;4.50;;
51602;SDS011;37954;51.980;5.850;2024-03-25T06:51:43;17.02;;;8.15;;
51602;SDS011;37954;51.980;5.850;2024-03-25T07:00:08;10.23;;;3.75;;
51602;SDS011;37954;51.980;5.850;2024-03-25T07:04:23;11.85;;;4.20;;
51602;SDS011;37954;51.980;5.850;2024-03-25T07:08:34;10.63;;;3.40;;
51602;SDS011;37954;51.980;5.850;2024-03-25T07:12:44;9.70;;;3.55;;
51602;SDS011;37954;51.980;5.850;2024-03-25T07:16:55;9.30;;;3.67;;
51602;SDS011;37954;51.980;5.850;2024-03-25T07:21:06;10.50;;;3.85;;
51602;SDS011;37954;51.980;5.850;2024-03-25T07:25:17;11.48;;;4.00;;
51602;SDS011;37954;51.980;5.850;2024-03-25T07:29:29;7.40;;;3.40;;
51602;SDS011;37954;51.980;5.850;2024-03-25T07:33:39;10.02;;;3.47;;
51602;SDS011;37954;51.980;5.850;2024-03-25T07:37:50;11.88;;;4.22;;
51602;SDS011;37954;51.980;5.850;2024-03-25T07:42:02;11.48;;;3.78;;
51602;SDS011;37954;51.980;5.850;2024-03-25T07:46:13;12.73;;;4.35;;
51602;SDS011;37954;51.980;5.850;2024-03-25T07:50:23;9.80;;;3.63;;
51602;SDS011;37954;51.980;5.850;2024-03-25T07:54:34;15.07;;;4.13;;
51602;SDS011;37954;51.980;5.850;2024-03-25T07:58:47;19.40;;;5.35;;
51602;SDS011;37954;51.980;5.850;2024-03-25T08:02:57;13.18;;;4.28;;
51602;SDS011;37954;51.980;5.850;2024-03-25T08:07:08;10.73;;;3.95;;
51602;SDS011;37954;51.980;5.850;2024-03-25T08:11:19;15.93;;;4.28;;
51602;SDS011;37954;51.980;5.850;2024-03-25T08:15:30;16.40;;;4.50;;
51602;SDS011;37954;51.980;5.850;2024-03-25T08:19:40;13.48;;;4.93;;
51602;SDS011;37954;51.980;5.850;2024-03-25T08:23:51;17.60;;;4.68;;
51602;SDS011;37954;51.980;5.850;2024-03-25T08:28:02;10.38;;;3.78;;
51602;SDS011;37954;51.980;5.850;2024-03-25T08:32:13;8.75;;;3.78;;
51602;SDS011;37954;51.980;5.850;2024-03-25T08:36:24;11.18;;;3.97;;
51602;SDS011;37954;51.980;5.850;2024-03-25T08:40:34;10.27;;;4.10;;
51602;SDS011;37954;51.980;5.850;2024-03-25T08:44:45;6.60;;;3.13;;
51602;SDS011;37954;51.980;5.850;2024-03-25T08:48:56;5.53;;;2.97;;
51602;SDS011;37954;51.980;5.850;2024-03-25T08:53:07;8.18;;;3.08;;
51602;SDS011;37954;51.980;5.850;2024-03-25T08:57:18;8.07;;;2.90;;
51602;SDS011;37954;51.980;5.850;2024-03-25T09:01:29;9.52;;;2.97;;
51602;SDS011;37954;51.980;5.850;2024-03-25T09:05:40;6.40;;;3.15;;
51602;SDS011;37954;51.980;5.850;2024-03-25T09:09:53;7.43;;;3.67;;
51602;SDS011;37954;51.980;5.850;2024-03-25T09:14:22;6.03;;;3.40;;
51602;SDS011;37954;51.980;5.850;2024-03-25T09:18:32;8.98;;;4.10;;
51602;SDS011;37954;51.980;5.850;2024-03-25T09:22:43;10.52;;;4.07;;
51602;SDS011;37954;51.980;5.850;2024-03-25T09:26:54;13.10;;;4.28;;
51602;SDS011;37954;51.980;5.850;2024-03-25T09:31:05;13.88;;;4.15;;
51602;SDS011;37954;51.980;5.850;2024-03-25T09:35:16;17.35;;;4.15;;
51602;SDS011;37954;51.980;5.850;2024-03-25T09:39:26;6.75;;;3.50;;
51602;SDS011;37954;51.980;5.850;2024-03-25T09:43:42;8.52;;;3.50;;
51602;SDS011;37954;51.980;5.850;2024-03-25T09:47:56;10.88;;;4.50;;
51602;SDS011;37954;51.980;5.850;2024-03-25T09:52:07;5.65;;;2.95;;
51602;SDS011;37954;51.980;5.850;2024-03-25T09:56:18;13.82;;;4.28;;
51602;SDS011;37954;51.980;5.850;2024-03-25T10:00:28;10.07;;;3.55;;
51602;SDS011;37954;51.980;5.850;2024-03-25T10:04:46;9.65;;;3.47;;
51602;SDS011;37954;51.980;5.850;2024-03-25T10:08:58;14.27;;;3.30;;
51602;SDS011;37954;51.980;5.850;2024-03-25T10:13:09;12.65;;;4.13;;
51602;SDS011;37954;51.980;5.850;2024-03-25T10:17:20;8.10;;;3.35;;
51602;SDS011;37954;51.980;5.850;2024-03-25T10:21:30;7.53;;;3.45;;
51602;SDS011;37954;51.980;5.850;2024-03-25T10:25:41;7.72;;;3.40;;
51602;SDS011;37954;51.980;5.850;2024-03-25T10:29:53;8.43;;;3.03;;
51602;SDS011;37954;51.980;5.850;2024-03-25T10:34:08;8.98;;;3.25;;
51602;SDS011;37954;51.980;5.850;2024-03-25T10:38:18;7.88;;;2.78;;
51602;SDS011;37954;51.980;5.850;2024-03-25T10:42:32;9.00;;;3.00;;
51602;SDS011;37954;51.980;5.850;2024-03-25T10:46:45;5.50;;;2.85;;
51602;SDS011;37954;51.980;5.850;2024-03-25T10:50:56;10.23;;;3.17;;
51602;SDS011;37954;51.980;5.850;2024-03-25T10:55:10;4.55;;;2.45;;
51602;SDS011;37954;51.980;5.850;2024-03-25T10:59:22;9.70;;;2.95;;
51602;SDS011;37954;51.980;5.850;2024-03-25T11:03:34;5.65;;;3.00;;
51602;SDS011;37954;51.980;5.850;2024-03-25T11:07:45;5.22;;;2.88;;
51602;SDS011;37954;51.980;5.850;2024-03-25T11:11:56;6.57;;;2.80;;
51602;SDS011;37954;51.980;5.850;2024-03-25T11:16:08;14.55;;;4.03;;
51602;SDS011;37954;51.980;5.850;2024-03-25T11:20:21;7.35;;;2.47;;
51602;SDS011;37954;51.980;5.850;2024-03-25T11:24:31;8.95;;;2.70;;
51602;SDS011;37954;51.980;5.850;2024-03-25T11:28:43;8.52;;;3.65;;
51602;SDS011;37954;51.980;5.850;2024-03-25T11:32:54;5.80;;;3.15;;
51602;SDS011;37954;51.980;5.850;2024-03-25T11:37:05;9.52;;;2.78;;
51602;SDS011;37954;51.980;5.850;2024-03-25T11:41:16;7.10;;;2.70;;
51602;SDS011;37954;51.980;5.850;2024-03-25T11:45:27;6.82;;;2.97;;
51602;SDS011;37954;51.980;5.850;2024-03-25T11:49:38;7.32;;;3.08;;
51602;SDS011;37954;51.980;5.850;2024-03-25T11:53:50;4.93;;;2.90;;
51602;SDS011;37954;51.980;5.850;2024-03-25T11:58:00;6.03;;;3.10;;
51602;SDS011;37954;51.980;5.850;2024-03-25T12:02:11;9.50;;;3.25;;
51602;SDS011;37954;51.980;5.850;2024-03-25T12:06:22;6.85;;;2.90;;
51602;SDS011;37954;51.980;5.850;2024-03-25T12:10:33;9.20;;;2.90;;
51602;SDS011;37954;51.980;5.850;2024-03-25T12:15:03;13.80;;;3.85;;
51602;SDS011;37954;51.980;5.850;2024-03-25T12:19:15;4.88;;;2.90;;
51602;SDS011;37954;51.980;5.850;2024-03-25T12:23:30;8.15;;;2.78;;
51602;SDS011;37954;51.980;5.850;2024-03-25T12:27:45;4.53;;;2.50;;
51602;SDS011;37954;51.980;5.850;2024-03-25T12:31:57;5.10;;;2.75;;
51602;SDS011;37954;51.980;5.850;2024-03-25T12:36:07;6.63;;;3.28;;
51602;SDS011;37954;51.980;5.850;2024-03-25T12:40:25;8.27;;;4.00;;
51602;SDS011;37954;51.980;5.850;2024-03-25T12:44:37;5.70;;;2.95;;
51602;SDS011;37954;51.980;5.850;2024-03-25T12:48:48;4.95;;;2.47;;
51602;SDS011;37954;51.980;5.850;2024-03-25T12:53:00;7.20;;;3.10;;
51602;SDS011;37954;51.980;5.850;2024-03-25T12:57:11;6.30;;;3.08;;
51602;SDS011;37954;51.980;5.850;2024-03-25T13:01:22;4.28;;;2.47;;
51602;SDS011;37954;51.980;5.850;2024-03-25T13:05:32;4.97;;;3.00;;
51602;SDS011;37954;51.980;5.850;2024-03-25T13:09:44;5.97;;;3.15;;
51602;SDS011;37954;51.980;5.850;2024-03-25T13:13:55;4.15;;;2.60;;
51602;SDS011;37954;51.980;5.850;2024-03-25T13:18:06;3.75;;;2.45;;
51602;SDS011;37954;51.980;5.850;2024-03-25T13:22:16;4.53;;;2.90;;
51602;SDS011;37954;51.980;5.850;2024-03-25T13:26:27;3.67;;;3.00;;
51602;SDS011;37954;51.980;5.850;2024-03-25T13:30:38;6.65;;;3.00;;
51602;SDS011;37954;51.980;5.850;2024-03-25T13:34:49;3.33;;;2.50;;
51602;SDS011;37954;51.980;5.850;2024-03-25T13:39:00;6.70;;;2.92;;
51602;SDS011;37954;51.980;5.850;2024-03-25T13:43:10;4.38;;;2.30;;
51602;SDS011;37954;51.980;5.850;2024-03-25T13:47:21;3.72;;;2.50;;
51602;SDS011;37954;51.980;5.850;2024-03-25T13:51:32;2.60;;;2.15;;
51602;SDS011;37954;51.980;5.850;2024-03-25T13:55:43;2.80;;;2.20;;
51602;SDS011;37954;51.980;5.850;2024-03-25T13:59:53;3.83;;;2.70;;
51602;SDS011;37954;51.980;5.850;2024-03-25T14:04:04;5.30;;;2.40;;
51602;SDS011;37954;51.980;5.850;2024-03-25T14:08:15;4.07;;;2.47;;
51602;SDS011;37954;51.980;5.850;2024-03-25T14:12:25;2.75;;;2.42;;
51602;SDS011;37954;51.980;5.850;2024-03-25T14:16:36;3.65;;;2.38;;
51602;SDS011;37954;51.980;5.850;2024-03-25T14:20:47;4.35;;;2.75;;
51602;SDS011;37954;51.980;5.850;2024-03-25T14:24:57;3.95;;;2.15;;
51602;SDS011;37954;51.980;5.850;2024-03-25T14:29:08;3.55;;;2.08;;
51602;SDS011;37954;51.980;5.850;2024-03-25T14:33:19;4.97;;;2.58;;
51602;SDS011;37954;51.980;5.850;2024-03-25T14:37:30;5.38;;;2.65;;
51602;SDS011;37954;51.980;5.850;2024-03-25T14:41:41;4.63;;;2.42;;
51602;SDS011;37954;51.980;5.850;2024-03-25T14:45:52;3.97;;;2.17;;
51602;SDS011;37954;51.980;5.850;2024-03-25T14:50:03;3.90;;;2.85;;
51602;SDS011;37954;51.980;5.850;2024-03-25T14:54:17;3.35;;;2.33;;
51602;SDS011;37954;51.980;5.850;2024-03-25T14:58:28;2.83;;;2.35;;
51602;SDS011;37954;51.980;5.850;2024-03-25T15:02:40;4.93;;;2.70;;
51602;SDS011;37954;51.980;5.850;2024-03-25T15:06:51;6.82;;;2.50;;
51602;SDS011;37954;51.980;5.850;2024-03-25T15:11:02;5.97;;;2.95;;
51602;SDS011;37954;51.980;5.850;2024-03-25T15:15:15;5.63;;;2.63;;
51602;SDS011;37954;51.980;5.850;2024-03-25T15:19:25;3.28;;;2.20;;
51602;SDS011;37954;51.980;5.850;2024-03-25T15:23:36;7.45;;;2.72;;
51602;SDS011;37954;51.980;5.850;2024-03-25T15:27:47;3.13;;;2.63;;
51602;SDS011;37954;51.980;5.850;2024-03-25T15:31:58;3.92;;;2.60;;
51602;SDS011;37954;51.980;5.850;2024-03-25T15:36:08;4.75;;;2.65;;
51602;SDS011;37954;51.980;5.850;2024-03-25T15:40:19;9.75;;;3.00;;
51602;SDS011;37954;51.980;5.850;2024-03-25T15:44:30;5.70;;;3.03;;
51602;SDS011;37954;51.980;5.850;2024-03-25T15:48:42;7.05;;;3.45;;
51602;SDS011;37954;51.980;5.850;2024-03-25T15:52:53;6.25;;;3.47;;
51602;SDS011;37954;51.980;5.850;2024-03-25T15:57:04;6.85;;;2.67;;
51602;SDS011;37954;51.980;5.850;2024-03-25T16:01:15;4.55;;;3.00;;
51602;SDS011;37954;51.980;5.850;2024-03-25T16:05:26;4.53;;;2.83;;
51602;SDS011;37954;51.980;5.850;2024-03-25T16:09:37;4.43;;;2.95;;
51602;SDS011;37954;51.980;5.850;2024-03-25T16:13:47;7.97;;;3.50;;
51602;SDS011;37954;51.980;5.850;2024-03-25T16:17:59;5.35;;;3.05;;
51602;SDS011;37954;51.980;5.850;2024-03-25T16:22:10;3.95;;;2.92;;
51602;SDS011;37954;51.980;5.850;2024-03-25T16:26:21;4.75;;;2.85;;
51602;SDS011;37954;51.980;5.850;2024-03-25T16:30:32;5.72;;;3.00;;
51602;SDS011;37954;51.980;5.850;2024-03-25T16:34:45;7.50;;;3.38;;
51602;SDS011;37954;51.980;5.850;2024-03-25T16:38:56;6.28;;;2.92;;
51602;SDS011;37954;51.980;5.850;2024-03-25T16:43:07;6.53;;;2.63;;
51602;SDS011;37954;51.980;5.850;2024-03-25T16:47:17;6.82;;;3.55;;
51602;SDS011;37954;51.980;5.850;2024-03-25T16:51:28;6.07;;;3.22;;
51602;SDS011;37954;51.980;5.850;2024-03-25T16:55:39;7.32;;;3.85;;
51602;SDS011;37954;51.980;5.850;2024-03-25T16:59:50;8.25;;;3.05;;
51602;SDS011;37954;51.980;5.850;2024-03-25T17:04:00;5.80;;;2.70;;
51602;SDS011;37954;51.980;5.850;2024-03-25T17:08:11;5.13;;;3.00;;
51602;SDS011;37954;51.980;5.850;2024-03-25T17:12:22;5.05;;;3.33;;
51602;SDS011;37954;51.980;5.850;2024-03-25T17:16:33;7.90;;;3.75;;
51602;SDS011;37954;51.980;5.850;2024-03-25T17:20:44;7.85;;;3.47;;
51602;SDS011;37954;51.980;5.850;2024-03-25T17:24:54;8.60;;;4.30;;
51602;SDS011;37954;51.980;5.850;2024-03-25T17:29:06;6.75;;;3.58;;
51602;SDS011;37954;51.980;5.850;2024-03-25T17:33:17;6.30;;;3.58;;
51602;SDS011;37954;51.980;5.850;2024-03-25T17:37:28;7.03;;;3.63;;
51602;SDS011;37954;51.980;5.850;2024-03-25T17:41:38;9.52;;;3.42;;
51602;SDS011;37954;51.980;5.850;2024-03-25T17:45:49;7.68;;;3.40;;
51602;SDS011;37954;51.980;5.850;2024-03-25T17:50:01;8.13;;;3.10;;
51602;SDS011;37954;51.980;5.850;2024-03-25T17:54:12;7.95;;;2.65;;
51602;SDS011;37954;51.980;5.850;2024-03-25T17:58:23;6.47;;;2.72;;
51602;SDS011;37954;51.980;5.850;2024-03-25T18:02:34;6.07;;;3.65;;
51602;SDS011;37954;51.980;5.850;2024-03-25T18:06:45;4.35;;;2.47;;
51602;SDS011;37954;51.980;5.850;2024-03-25T18:10:59;5.20;;;2.95;;
51602;SDS011;37954;51.980;5.850;2024-03-25T18:15:10;4.55;;;2.28;;
51602;SDS011;37954;51.980;5.850;2024-03-25T18:19:21;7.50;;;2.80;;
51602;SDS011;37954;51.980;5.850;2024-03-25T18:23:33;5.22;;;2.80;;
51602;SDS011;37954;51.980;5.850;2024-03-25T18:27:43;4.75;;;2.92;;
51602;SDS011;37954;51.980;5.850;2024-03-25T18:31:54;4.45;;;2.80;;
51602;SDS011;37954;51.980;5.850;2024-03-25T18:36:05;5.68;;;3.30;;
51602;SDS011;37954;51.980;5.850;2024-03-25T18:40:16;6.57;;;3.05;;
51602;SDS011;37954;51.980;5.850;2024-03-25T18:44:27;8.02;;;3.53;;
51602;SDS011;37954;51.980;5.850;2024-03-25T18:48:38;8.00;;;4.30;;
51602;SDS011;37954;51.980;5.850;2024-03-25T18:52:48;12.13;;;5.20;;
51602;SDS011;37954;51.980;5.850;2024-03-25T18:56:59;5.72;;;3.58;;
51602;SDS011;37954;51.980;5.850;2024-03-25T19:01:10;6.22;;;3.15;;
51602;SDS011;37954;51.980;5.850;2024-03-25T19:05:21;7.03;;;3.30;;
51602;SDS011;37954;51.980;5.850;2024-03-25T19:09:31;5.30;;;2.80;;
51602;SDS011;37954;51.980;5.850;2024-03-25T19:13:42;6.68;;;3.13;;
51602;SDS011;37954;51.980;5.850;2024-03-25T19:17:53;6.85;;;3.38;;
51602;SDS011;37954;51.980;5.850;2024-03-25T19:22:04;8.45;;;2.92;;
51602;SDS011;37954;51.980;5.850;2024-03-25T19:26:15;8.02;;;3.25;;
51602;SDS011;37954;51.980;5.850;2024-03-25T19:30:25;6.57;;;3.00;;
51602;SDS011;37954;51.980;5.850;2024-03-25T19:34:36;7.20;;;3.47;;
51602;SDS011;37954;51.980;5.850;2024-03-25T19:38:47;7.13;;;3.42;;
51602;SDS011;37954;51.980;5.850;2024-03-25T19:42:57;8.18;;;3.63;;
51602;SDS011;37954;51.980;5.850;2024-03-25T19:47:08;7.45;;;4.07;;
51602;SDS011;37954;51.980;5.850;2024-03-25T19:51:19;6.00;;;3.33;;
51602;SDS011;37954;51.980;5.850;2024-03-25T19:55:30;5.55;;;3.72;;
51602;SDS011;37954;51.980;5.850;2024-03-25T19:59:40;9.82;;;4.85;;
51602;SDS011;37954;51.980;5.850;2024-03-25T20:03:51;13.85;;;4.93;;
51602;SDS011;37954;51.980;5.850;2024-03-25T20:08:02;7.55;;;4.40;;
51602;SDS011;37954;51.980;5.850;2024-03-25T20:12:13;7.97;;;3.55;;
51602;SDS011;37954;51.980;5.850;2024-03-25T20:16:24;8.60;;;4.20;;
51602;SDS011;37954;51.980;5.850;2024-03-25T20:20:35;8.25;;;4.05;;
51602;SDS011;37954;51.980;5.850;2024-03-25T20:24:46;4.47;;;3.20;;
51602;SDS011;37954;51.980;5.850;2024-03-25T20:28:57;9.43;;;4.80;;
51602;SDS011;37954;51.980;5.850;2024-03-25T20:33:07;6.28;;;3.65;;
51602;SDS011;37954;51.980;5.850;2024-03-25T20:37:18;11.20;;;3.40;;
51602;SDS011;37954;51.980;5.850;2024-03-25T20:41:31;6.40;;;3.30;;
51602;SDS011;37954;51.980;5.850;2024-03-25T20:45:42;4.75;;;2.78;;
51602;SDS011;37954;51.980;5.850;2024-03-25T20:49:53;8.68;;;2.90;;
51602;SDS011;37954;51.980;5.850;2024-03-25T20:54:03;3.85;;;2.85;;
51602;SDS011;37954;51.980;5.850;2024-03-25T20:58:14;4.85;;;2.53;;
51602;SDS011;37954;51.980;5.850;2024-03-25T21:02:25;12.73;;;3.03;;
51602;SDS011;37954;51.980;5.850;2024-03-25T21:06:35;3.70;;;2.55;;
51602;SDS011;37954;51.980;5.850;2024-03-25T21:10:46;6.55;;;2.67;;
51602;SDS011;37954;51.980;5.850;2024-03-25T21:14:57;4.78;;;2.78;;
51602;SDS011;37954;51.980;5.850;2024-03-25T21:19:07;6.35;;;3.05;;
51602;SDS011;37954;51.980;5.850;2024-03-25T21:23:18;4.05;;;2.67;;
51602;SDS011;37954;51.980;5.850;2024-03-25T21:27:29;6.80;;;3.53;;
51602;SDS011;37954;51.980;5.850;2024-03-25T21:31:41;9.40;;;2.80;;
51602;SDS011;37954;51.980;5.850;2024-03-25T21:35:51;8.33;;;2.87;;
51602;SDS011;37954;51.980;5.850;2024-03-25T21:40:02;8.47;;;3.50;;
51602;SDS011;37954;51.980;5.850;2024-03-25T21:44:15;6.73;;;3.00;;
51602;SDS011;37954;51.980;5.850;2024-03-25T21:48:25;10.60;;;4.45;;
51602;SDS011;37954;51.980;5.850;2024-03-25T21:52:36;10.83;;;4.40;;
51602;SDS011;37954;51.980;5.850;2024-03-25T21:56:47;12.50;;;4.50;;
51602;SDS011;37954;51.980;5.850;2024-03-25T22:00:57;7.73;;;4.07;;
51602;SDS011;37954;51.980;5.850;2024-03-25T22:05:08;14.33;;;4.33;;
51602;SDS011;37954;51.980;5.850;2024-03-25T22:09:19;9.95;;;4.28;;
51602;SDS011;37954;51.980;5.850;2024-03-25T22:13:29;6.00;;;3.17;;
51602;SDS011;37954;51.980;5.850;2024-03-25T22:17:40;6.77;;;3.90;;
51602;SDS011;37954;51.980;5.850;2024-03-25T22:21:51;4.07;;;2.80;;
51602;SDS011;37954;51.980;5.850;2024-03-25T22:26:02;7.00;;;3.17;;
51602;SDS011;37954;51.980;5.850;2024-03-25T22:30:13;5.10;;;2.80;;
51602;SDS011;37954;51.980;5.850;2024-03-25T22:34:24;4.70;;;2.97;;
51602;SDS011;37954;51.980;5.850;2024-03-25T22:38:35;5.67;;;2.60;;
51602;SDS011;37954;51.980;5.850;2024-03-25T22:42:46;5.20;;;2.70;;
51602;SDS011;37954;51.980;5.850;2024-03-25T22:46:56;5.60;;;2.53;;
51602;SDS011;37954;51.980;5.850;2024-03-25T22:51:07;5.03;;;2.60;;
51602;SDS011;37954;51.980;5.850;2024-03-25T22:55:18;5.23;;;2.70;;
51602;SDS011;37954;51.980;5.850;2024-03-25T22:59:28;7.83;;;3.03;;
51602;SDS011;37954;51.980;5.850;2024-03-25T23:03:39;6.27;;;2.70;;
51602;SDS011;37954;51.980;5.850;2024-03-25T23:07:50;5.23;;;2.90;;
51602;SDS011;37954;51.980;5.850;2024-03-25T23:12:01;3.87;;;2.40;;
51602;SDS011;37954;51.980;5.850;2024-03-25T23:16:11;7.90;;;2.97;;
51602;SDS011;37954;51.980;5.850;2024-03-25T23:20:22;4.77;;;2.83;;
51602;SDS011;37954;51.980;5.850;2024-03-25T23:24:33;6.07;;;3.13;;
51602;SDS011;37954;51.980;5.850;2024-03-25T23:28:44;6.57;;;2.93;;
51602;SDS011;37954;51.980;5.850;2024-03-25T23:32:55;7.50;;;3.00;;
51602;SDS011;37954;51.980;5.850;2024-03-25T23:37:07;4.70;;;2.80;;
51602;SDS011;37954;51.980;5.850;2024-03-25T23:41:17;7.83;;;3.23;;
51602;SDS011;37954;51.980;5.850;2024-03-25T23:45:28;9.40;;;2.87;;
51602;SDS011;37954;51.980;5.850;2024-03-25T23:49:39;5.47;;;3.00;;
51602;SDS011;37954;51.980;5.850;2024-03-25T23:53:50;8.73;;;2.83;;
51602;SDS011;37954;51.980;5.850;2024-03-25T23:58:00;5.37;;;2.73;;
